createdAt,value
2019-04-21T00:00:35.503Z,1012.77
2019-04-21T00:01:39.874Z,1012.74
2019-04-21T00:02:37.697Z,1012.67
2019-04-21T00:03:40.992Z,1012.67
2019-04-21T00:04:48.235Z,1012.76
2019-04-21T00:05:52.188Z,1012.68
2019-04-21T00:07:01.230Z,1012.72
2019-04-21T00:07:50.708Z,1012.68
2019-04-21T00:08:57.907Z,1012.66
2019-04-21T00:10:56.718Z,1012.69
2019-04-21T00:11:55.626Z,1012.68
2019-04-21T00:12:53.461Z,1012.65
2019-04-21T00:13:47.030Z,1012.75
2019-04-21T00:14:46.146Z,1012.68
2019-04-21T00:15:40.667Z,1012.68
2019-04-21T00:16:45.441Z,1012.73
2019-04-21T00:17:35.055Z,1012.65
2019-04-21T00:18:40.876Z,1012.65
2019-04-21T00:19:37.169Z,1012.68
2019-04-21T00:20:40.932Z,1012.68
2019-04-21T00:21:40.477Z,1012.67
2019-04-21T00:22:44.019Z,1012.67
2019-04-21T00:23:55.253Z,1012.64
2019-04-21T00:24:49.745Z,1012.64
2019-04-21T00:25:50.297Z,1012.59
2019-04-21T00:26:55.801Z,1012.63
2019-04-21T00:27:50.428Z,1012.63
2019-04-21T00:29:02.283Z,1012.57
2019-04-21T00:29:51.913Z,1012.53
2019-04-21T00:30:50.904Z,1012.60
2019-04-21T00:31:51.152Z,1012.57
2019-04-21T00:32:46.741Z,1012.55
2019-04-21T00:33:39.162Z,1012.56
2019-04-21T00:34:34.324Z,1012.51
2019-04-21T00:35:41.479Z,1012.48
2019-04-21T00:36:47.176Z,1012.47
2019-04-21T00:37:53.359Z,1012.48
2019-04-21T00:39:08.302Z,1012.44
2019-04-21T00:40:02.195Z,1012.46
2019-04-21T00:40:54.103Z,1012.47
2019-04-21T00:41:53.763Z,1012.44
2019-04-21T00:42:52.104Z,1012.34
2019-04-21T00:43:48.964Z,1012.43
2019-04-21T00:44:51.991Z,1012.40
2019-04-21T00:45:44.651Z,1012.36
2019-04-21T00:46:47.193Z,1012.40
2019-04-21T00:47:53.323Z,1012.34
2019-04-21T00:48:53.431Z,1012.32
2019-04-21T00:49:56.843Z,1012.28
2019-04-21T00:51:14.575Z,1012.33
2019-04-21T00:52:05.263Z,1012.24
2019-04-21T00:53:02.190Z,1012.23
2019-04-21T00:55:07.641Z,1012.32
2019-04-21T00:55:59.650Z,1012.21
2019-04-21T00:56:56.209Z,1012.30
2019-04-21T00:58:00.054Z,1012.26
2019-04-21T00:59:02.382Z,1012.26
2019-04-21T01:00:00.797Z,1012.18
2019-04-21T01:00:58.562Z,1012.14
2019-04-21T01:01:55.540Z,1012.18
2019-04-21T01:02:57.940Z,1012.11
2019-04-21T01:03:57.938Z,1012.17
2019-04-21T01:05:00.032Z,1012.14
2019-04-21T01:05:57.329Z,1012.18
2019-04-21T01:06:55.633Z,1012.21
2019-04-21T01:07:52.954Z,1012.12
2019-04-21T01:08:55.626Z,1012.19
2019-04-21T01:09:48.595Z,1012.09
2019-04-21T01:10:48.959Z,1012.13
2019-04-21T01:12:00.225Z,1012.13
2019-04-21T01:12:56.208Z,1012.14
2019-04-21T01:13:58.264Z,1012.14
2019-04-21T01:14:58.175Z,1012.09
2019-04-21T01:15:53.361Z,1012.12
2019-04-21T01:16:58.167Z,1011.99
2019-04-21T01:17:51.955Z,1012.00
2019-04-21T01:18:55.244Z,1011.99
2019-04-21T01:19:52.550Z,1012.06
2019-04-21T01:20:33.430Z,1012.00
2019-04-21T01:21:32.397Z,1011.94
2019-04-21T01:22:32.389Z,1011.90
2019-04-21T01:23:33.644Z,1011.98
2019-04-21T01:24:36.137Z,1011.96
2019-04-21T01:25:41.545Z,1012.00
2019-04-21T01:26:46.367Z,1011.95
2019-04-21T01:27:53.708Z,1011.95
2019-04-21T01:28:54.539Z,1011.99
2019-04-21T01:29:57.672Z,1011.98
2019-04-21T01:30:53.571Z,1011.93
2019-04-21T01:31:48.626Z,1011.90
2019-04-21T01:32:53.123Z,1011.95
2019-04-21T01:33:59.204Z,1011.95
2019-04-21T01:34:53.280Z,1011.89
2019-04-21T01:35:55.571Z,1011.90
2019-04-21T01:36:49.816Z,1011.90
2019-04-21T01:37:56.030Z,1011.92
2019-04-21T01:38:58.282Z,1011.83
2019-04-21T01:39:53.243Z,1011.94
2019-04-21T01:40:57.131Z,1011.92
2019-04-21T01:41:59.121Z,1011.89
2019-04-21T01:42:52.922Z,1011.87
2019-04-21T01:43:53.482Z,1011.93
2019-04-21T01:44:53.565Z,1011.89
2019-04-21T01:45:50.463Z,1011.87
2019-04-21T01:46:48.757Z,1011.90
2019-04-21T01:47:50.663Z,1011.89
2019-04-21T01:48:50.494Z,1011.89
2019-04-21T01:49:43.003Z,1011.91
2019-04-21T01:50:51.629Z,1011.87
2019-04-21T01:52:03.140Z,1011.83
2019-04-21T01:52:55.952Z,1011.86
2019-04-21T01:53:56.501Z,1011.81
2019-04-21T01:54:56.057Z,1011.82
2019-04-21T01:55:54.120Z,1011.81
2019-04-21T01:56:53.965Z,1011.81
2019-04-21T01:57:49.435Z,1011.82
2019-04-21T01:58:42.931Z,1011.83
2019-04-21T01:59:47.149Z,1011.81
2019-04-21T02:00:54.349Z,1011.82
2019-04-21T02:01:54.131Z,1011.78
2019-04-21T02:02:59.565Z,1011.80
2019-04-21T02:04:57.947Z,1011.73
2019-04-21T02:05:59.674Z,1011.73
2019-04-21T02:07:00.612Z,1011.76
2019-04-21T02:08:49.398Z,1011.76
2019-04-21T02:09:59.292Z,1011.78
2019-04-21T02:11:00.655Z,1011.76
2019-04-21T02:11:55.146Z,1011.74
2019-04-21T02:12:55.333Z,1011.70
2019-04-21T02:13:57.590Z,1011.76
2019-04-21T02:15:02.624Z,1011.69
2019-04-21T02:15:55.480Z,1011.64
2019-04-21T02:16:54.387Z,1011.74
2019-04-21T02:17:54.127Z,1011.66
2019-04-21T02:18:53.168Z,1011.67
2019-04-21T02:19:50.351Z,1011.68
2019-04-21T02:20:41.311Z,1011.69
2019-04-21T02:21:50.431Z,1011.64
2019-04-21T02:23:12.889Z,1011.67
2019-04-21T02:24:01.842Z,1011.62
2019-04-21T02:24:58.036Z,1011.63
2019-04-21T02:25:57.806Z,1011.63
2019-04-21T02:26:56.168Z,1011.61
2019-04-21T02:27:59.461Z,1011.59
2019-04-21T02:29:55.245Z,1011.56
2019-04-21T02:32:11.421Z,1011.56
2019-04-21T02:33:13.668Z,1011.59
2019-04-21T02:34:09.301Z,1011.62
2019-04-21T02:37:21.429Z,1011.53
2019-04-21T02:38:23.274Z,1011.56
2019-04-21T02:40:59.563Z,1011.50
2019-04-21T02:42:03.412Z,1011.54
2019-04-21T02:43:07.652Z,1011.53
2019-04-21T02:44:08.301Z,1011.58
2019-04-21T02:45:09.256Z,1011.54
2019-04-21T02:46:10.556Z,1011.49
2019-04-21T02:46:54.594Z,1011.52
2019-04-21T02:48:08.930Z,1011.49
2019-04-21T02:49:11.194Z,1011.49
2019-04-21T02:50:09.594Z,1011.42
2019-04-21T02:50:57.717Z,1011.54
2019-04-21T02:52:16.593Z,1011.44
2019-04-21T02:53:07.138Z,1011.48
2019-04-21T02:54:32.219Z,1011.45
2019-04-21T02:55:04.035Z,1011.46
2019-04-21T02:56:01.059Z,1011.47
2019-04-21T02:58:10.003Z,1011.41
2019-04-21T02:59:12.405Z,1011.43
2019-04-21T03:00:06.909Z,1011.41
2019-04-21T03:01:07.549Z,1011.44
2019-04-21T03:03:06.983Z,1011.41
2019-04-21T03:04:00.667Z,1011.39
2019-04-21T03:05:22.194Z,1011.43
2019-04-21T03:06:18.716Z,1011.42
2019-04-21T03:07:11.488Z,1011.43
2019-04-21T03:08:02.964Z,1011.41
2019-04-21T03:10:02.299Z,1011.33
2019-04-21T03:11:08.949Z,1011.33
2019-04-21T03:13:08.974Z,1011.29
2019-04-21T03:14:13.653Z,1011.21
2019-04-21T03:15:06.179Z,1011.26
2019-04-21T03:16:11.690Z,1011.24
2019-04-21T03:17:05.673Z,1011.24
2019-04-21T03:18:05.794Z,1011.25
2019-04-21T03:20:02.893Z,1011.17
2019-04-21T03:21:16.195Z,1011.13
2019-04-21T03:22:05.301Z,1011.13
2019-04-21T03:23:07.767Z,1011.21
2019-04-21T03:24:05.847Z,1011.15
2019-04-21T03:26:14.340Z,1011.11
2019-04-21T03:28:11.988Z,1011.11
2019-04-21T03:29:05.870Z,1011.11
2019-04-21T03:36:33.992Z,1011.10
2019-04-21T03:38:13.100Z,1011.08
2019-04-21T03:39:01.734Z,1011.11
2019-04-21T03:39:59.853Z,1011.10
2019-04-21T03:41:06.634Z,1011.09
2019-04-21T03:42:07.340Z,1011.08
2019-04-21T03:43:04.474Z,1011.10
2019-04-21T03:44:09.957Z,1011.06
2019-04-21T03:45:06.778Z,1011.04
2019-04-21T03:46:01.307Z,1011.02
2019-04-21T03:47:09.232Z,1011.00
2019-04-21T03:48:01.062Z,1011.01
2019-04-21T03:51:07.377Z,1011.03
2019-04-21T03:52:15.225Z,1011.05
2019-04-21T03:53:03.492Z,1011.00
2019-04-21T03:54:00.372Z,1011.07
2019-04-21T03:55:12.526Z,1011.06
2019-04-21T03:57:17.757Z,1011.03
2019-04-21T03:58:15.122Z,1011.03
2019-04-21T04:00:06.232Z,1011.07
2019-04-21T04:04:00.758Z,1011.09
2019-04-21T04:05:08.782Z,1011.04
2019-04-21T04:06:09.641Z,1010.96
2019-04-21T04:07:19.092Z,1011.06
2019-04-21T04:08:16.320Z,1011.04
2019-04-21T04:09:14.412Z,1011.02
2019-04-21T04:10:07.705Z,1011.01
2019-04-21T04:11:56.618Z,1010.97
2019-04-21T04:13:05.465Z,1010.89
2019-04-21T04:14:20.380Z,1010.94
2019-04-21T04:15:00.741Z,1010.94
2019-04-21T04:17:11.863Z,1010.89
2019-04-21T04:18:57.993Z,1010.89
2019-04-21T04:20:22.223Z,1010.91
2019-04-21T04:21:12.287Z,1010.93
2019-04-21T04:22:07.016Z,1010.95
2019-04-21T04:23:03.353Z,1010.92
2019-04-21T04:25:07.341Z,1010.87
2019-04-21T04:26:19.174Z,1010.90
2019-04-21T04:27:10.625Z,1010.85
2019-04-21T04:30:07.674Z,1010.93
2019-04-21T04:31:06.481Z,1010.88
2019-04-21T04:31:55.407Z,1010.85
2019-04-21T04:32:57.378Z,1010.89
2019-04-21T04:34:10.455Z,1010.90
2019-04-21T04:35:03.771Z,1010.84
2019-04-21T04:37:06.027Z,1010.89
2019-04-21T04:38:08.088Z,1010.85
2019-04-21T04:39:19.379Z,1010.87
2019-04-21T04:41:06.254Z,1010.84
2019-04-21T04:42:26.704Z,1010.86
2019-04-21T04:43:07.941Z,1010.83
2019-04-21T04:44:13.605Z,1010.87
2019-04-21T04:45:58.453Z,1010.86
2019-04-21T04:49:10.987Z,1010.85
2019-04-21T04:51:14.800Z,1010.90
2019-04-21T04:52:56.655Z,1010.93
2019-04-21T04:53:53.123Z,1010.86
2019-04-21T04:56:05.860Z,1010.83
2019-04-21T04:57:09.995Z,1010.81
2019-04-21T05:00:14.893Z,1010.81
2019-04-21T05:01:24.631Z,1010.78
2019-04-21T05:02:15.032Z,1010.76
2019-04-21T05:03:01.827Z,1010.77
2019-04-21T05:04:10.313Z,1010.75
2019-04-21T05:06:11.939Z,1010.74
2019-04-21T05:07:11.833Z,1010.68
2019-04-21T05:08:19.727Z,1010.69
2019-04-21T05:09:15.418Z,1010.69
2019-04-21T05:10:01.581Z,1010.73
2019-04-21T05:11:07.727Z,1010.69
2019-04-21T05:11:55.694Z,1010.70
2019-04-21T05:12:57.229Z,1010.71
2019-04-21T05:14:59.278Z,1010.66
2019-04-21T05:16:06.220Z,1010.70
2019-04-21T05:17:02.281Z,1010.70
2019-04-21T05:17:57.643Z,1010.65
2019-04-21T05:21:03.550Z,1010.66
2019-04-21T05:21:54.730Z,1010.67
2019-04-21T05:22:53.140Z,1010.67
2019-04-21T05:23:52.135Z,1010.65
2019-04-21T05:24:52.731Z,1010.68
2019-04-21T05:25:45.857Z,1010.63
2019-04-21T05:26:47.901Z,1010.66
2019-04-21T05:27:47.356Z,1010.74
2019-04-21T05:28:44.641Z,1010.70
2019-04-21T05:29:53.970Z,1010.62
2019-04-21T05:31:01.247Z,1010.61
2019-04-21T05:32:09.114Z,1010.67
2019-04-21T05:32:57.572Z,1010.56
2019-04-21T05:33:57.644Z,1010.60
2019-04-21T05:34:53.347Z,1010.63
2019-04-21T05:35:49.261Z,1010.61
2019-04-21T05:36:53.166Z,1010.64
2019-04-21T05:37:51.833Z,1010.55
2019-04-21T05:38:51.408Z,1010.67
2019-04-21T05:39:51.425Z,1010.63
2019-04-21T05:40:45.633Z,1010.68
2019-04-21T05:41:41.762Z,1010.65
2019-04-21T05:42:47.593Z,1010.69
2019-04-21T05:43:51.382Z,1010.58
2019-04-21T05:44:59.834Z,1010.55
2019-04-21T05:45:53.319Z,1010.61
2019-04-21T05:47:00.743Z,1010.65
2019-04-21T05:47:56.312Z,1010.63
2019-04-21T05:48:52.522Z,1010.62
2019-04-21T05:49:49.875Z,1010.62
2019-04-21T05:50:49.518Z,1010.65
2019-04-21T05:51:44.113Z,1010.65
2019-04-21T05:52:48.972Z,1010.62
2019-04-21T05:53:55.933Z,1010.64
2019-04-21T05:54:57.461Z,1010.56
2019-04-21T05:56:51.258Z,1010.61
2019-04-21T05:57:47.814Z,1010.62
2019-04-21T05:58:49.680Z,1010.58
2019-04-21T05:59:51.556Z,1010.59
2019-04-21T06:01:07.862Z,1010.61
2019-04-21T06:02:02.122Z,1010.52
2019-04-21T06:03:00.670Z,1010.52
2019-04-21T06:03:57.544Z,1010.60
2019-04-21T06:06:03.410Z,1010.58
2019-04-21T06:07:02.094Z,1010.55
2019-04-21T06:07:52.419Z,1010.53
2019-04-21T06:08:48.062Z,1010.59
2019-04-21T06:09:56.866Z,1010.59
2019-04-21T06:10:53.983Z,1010.68
2019-04-21T06:11:51.220Z,1010.69
2019-04-21T06:13:03.975Z,1010.83
2019-04-21T06:13:58.046Z,1010.77
2019-04-21T06:14:55.888Z,1010.76
2019-04-21T06:16:55.635Z,1010.79
2019-04-21T06:18:01.017Z,1010.86
2019-04-21T06:18:58.301Z,1010.82
2019-04-21T06:19:57.235Z,1010.81
2019-04-21T06:20:55.104Z,1010.87
2019-04-21T06:21:51.102Z,1010.81
2019-04-21T06:22:53.169Z,1010.84
2019-04-21T06:23:49.646Z,1010.93
2019-04-21T06:25:21.607Z,1010.81
2019-04-21T06:27:11.614Z,1010.84
2019-04-21T06:27:51.094Z,1010.84
2019-04-21T06:28:50.345Z,1010.89
2019-04-21T06:29:54.501Z,1010.86
2019-04-21T06:30:59.649Z,1010.84
2019-04-21T06:32:21.989Z,1010.88
2019-04-21T06:32:52.746Z,1010.91
2019-04-21T06:33:50.689Z,1010.85
2019-04-21T06:35:14.879Z,1010.85
2019-04-21T06:36:21.608Z,1010.86
2019-04-21T06:36:56.673Z,1010.93
2019-04-21T06:37:49.447Z,1010.92
2019-04-21T06:39:04.673Z,1010.93
2019-04-21T06:40:09.282Z,1010.92
2019-04-21T06:40:55.985Z,1010.90
2019-04-21T06:41:48.549Z,1010.91
2019-04-21T06:43:07.688Z,1010.95
2019-04-21T06:45:53.680Z,1010.97
2019-04-21T06:46:51.690Z,1010.95
2019-04-21T06:48:01.124Z,1010.99
2019-04-21T06:48:55.445Z,1010.99
2019-04-21T06:49:50.545Z,1011.04
2019-04-21T06:50:52.943Z,1011.02
2019-04-21T06:51:48.289Z,1011.02
2019-04-21T06:53:01.100Z,1011.00
2019-04-21T06:53:59.344Z,1011.05
2019-04-21T06:54:56.043Z,1010.98
2019-04-21T06:55:52.526Z,1011.00
2019-04-21T06:56:51.322Z,1010.95
2019-04-21T06:57:56.005Z,1010.96
2019-04-21T06:58:51.496Z,1011.01
2019-04-21T06:59:53.066Z,1010.93
2019-04-21T07:00:51.007Z,1010.96
2019-04-21T07:02:21.268Z,1010.96
2019-04-21T07:03:02.923Z,1010.92
2019-04-21T07:04:01.051Z,1010.99
2019-04-21T07:04:54.626Z,1010.98
2019-04-21T07:05:57.590Z,1011.02
2019-04-21T07:06:54.654Z,1011.04
2019-04-21T07:08:09.827Z,1011.02
2019-04-21T07:09:02.949Z,1011.01
2019-04-21T07:09:59.374Z,1010.97
2019-04-21T07:10:51.753Z,1011.03
2019-04-21T07:11:53.857Z,1011.00
2019-04-21T07:12:56.130Z,1011.00
2019-04-21T07:13:54.818Z,1010.98
2019-04-21T07:14:52.787Z,1010.96
2019-04-21T07:15:53.787Z,1011.03
2019-04-21T07:17:54.031Z,1010.94
2019-04-21T07:19:01.204Z,1010.97
2019-04-21T07:19:57.160Z,1011.03
2019-04-21T07:20:56.429Z,1011.00
2019-04-21T07:21:52.549Z,1011.00
2019-04-21T07:23:13.474Z,1010.95
2019-04-21T07:23:57.332Z,1010.55
2019-04-21T07:24:49.222Z,1010.85
2019-04-21T07:25:53.137Z,1010.93
2019-04-21T07:26:51.032Z,1010.90
2019-04-21T07:27:52.640Z,1010.95
2019-04-21T07:28:56.337Z,1010.94
2019-04-21T07:29:55.023Z,1010.91
2019-04-21T07:30:53.466Z,1010.94
2019-04-21T07:32:01.812Z,1010.87
2019-04-21T07:32:55.345Z,1010.91
2019-04-21T07:33:59.763Z,1010.97
2019-04-21T07:34:51.173Z,1010.96
2019-04-21T07:35:51.711Z,1010.93
2019-04-21T07:37:53.662Z,1010.87
2019-04-21T07:38:50.977Z,1010.83
2019-04-21T07:39:52.827Z,1010.86
2019-04-21T07:40:43.834Z,1010.85
2019-04-21T07:41:47.018Z,1010.90
2019-04-21T07:42:47.085Z,1010.91
2019-04-21T07:43:44.129Z,1010.94
2019-04-21T07:44:42.336Z,1010.93
2019-04-21T07:45:44.430Z,1010.90
2019-04-21T07:46:41.675Z,1010.93
2019-04-21T07:47:50.689Z,1010.84
2019-04-21T07:48:49.451Z,1010.90
2019-04-21T07:49:56.538Z,1010.86
2019-04-21T07:50:56.320Z,1010.86
2019-04-21T07:51:50.901Z,1010.86
2019-04-21T07:52:53.276Z,1010.94
2019-04-21T07:53:55.355Z,1010.89
2019-04-21T07:54:57.559Z,1010.86
2019-04-21T07:55:30.161Z,1010.82
2019-04-21T07:56:35.092Z,1010.91
2019-04-21T07:57:45.671Z,1010.81
2019-04-21T07:58:53.562Z,1010.81
2019-04-21T07:59:56.197Z,1010.85
2019-04-21T08:00:56.375Z,1010.79
2019-04-21T08:01:53.778Z,1010.86
2019-04-21T08:02:51.860Z,1010.82
2019-04-21T08:03:59.444Z,1010.84
2019-04-21T08:05:54.366Z,1010.79
2019-04-21T08:07:54.225Z,1010.68
2019-04-21T08:08:49.146Z,1010.71
2019-04-21T08:09:46.827Z,1010.73
2019-04-21T08:10:44.266Z,1010.65
2019-04-21T08:11:41.628Z,1010.67
2019-04-21T08:12:47.553Z,1010.73
2019-04-21T08:14:02.097Z,1010.69
2019-04-21T08:14:55.870Z,1010.66
2019-04-21T08:16:04.687Z,1010.62
2019-04-21T08:16:53.954Z,1010.65
2019-04-21T08:17:47.302Z,1010.65
2019-04-21T08:18:47.619Z,1010.65
2019-04-21T08:19:44.596Z,1010.72
2019-04-21T08:21:51.660Z,1010.67
2019-04-21T08:22:51.578Z,1010.70
2019-04-21T08:23:46.750Z,1010.67
2019-04-21T08:24:51.870Z,1010.60
2019-04-21T08:26:06.442Z,1010.66
2019-04-21T08:26:55.044Z,1010.65
2019-04-21T08:28:52.311Z,1010.55
2019-04-21T08:29:52.216Z,1010.50
2019-04-21T08:30:47.960Z,1010.57
2019-04-21T08:31:56.285Z,1010.59
2019-04-21T08:33:08.825Z,1010.56
2019-04-21T08:33:57.455Z,1010.53
2019-04-21T08:34:54.905Z,1010.55
2019-04-21T08:36:51.504Z,1010.45
2019-04-21T08:37:48.575Z,1010.49
2019-04-21T08:38:48.469Z,1010.50
2019-04-21T08:39:59.682Z,1010.56
2019-04-21T08:40:51.649Z,1010.44
2019-04-21T08:41:54.258Z,1010.42
2019-04-21T08:42:52.133Z,1010.48
2019-04-21T08:43:51.128Z,1010.47
2019-04-21T08:44:52.436Z,1010.44
2019-04-21T08:45:50.878Z,1010.49
2019-04-21T08:46:55.086Z,1010.41
2019-04-21T08:48:10.326Z,1010.43
2019-04-21T08:48:49.806Z,1010.41
2019-04-21T08:49:49.057Z,1010.38
2019-04-21T08:50:53.978Z,1010.37
2019-04-21T08:51:53.653Z,1010.43
2019-04-21T08:52:56.852Z,1010.42
2019-04-21T08:54:51.530Z,1010.39
2019-04-21T08:55:58.041Z,1010.41
2019-04-21T08:56:46.631Z,1010.44
2019-04-21T08:58:00.861Z,1010.40
2019-04-21T08:58:52.932Z,1010.36
2019-04-21T08:59:55.138Z,1010.36
2019-04-21T09:00:46.799Z,1010.33
2019-04-21T09:01:50.328Z,1010.34
2019-04-21T09:02:47.584Z,1010.24
2019-04-21T09:03:52.037Z,1010.25
2019-04-21T09:04:49.104Z,1010.22
2019-04-21T09:05:54.008Z,1010.22
2019-04-21T09:06:58.779Z,1010.28
2019-04-21T09:07:51.279Z,1010.29
2019-04-21T09:08:47.521Z,1010.27
2019-04-21T09:09:47.431Z,1010.29
2019-04-21T09:10:51.781Z,1010.21
2019-04-21T09:11:49.921Z,1010.15
2019-04-21T09:13:49.972Z,1010.16
2019-04-21T09:14:50.926Z,1010.17
2019-04-21T09:15:41.576Z,1010.15
2019-04-21T09:16:40.744Z,1010.17
2019-04-21T09:17:41.430Z,1010.17
2019-04-21T09:18:41.495Z,1010.18
2019-04-21T09:20:07.780Z,1010.09
2019-04-21T09:21:52.960Z,1010.19
2019-04-21T09:22:50.909Z,1010.18
2019-04-21T09:23:45.223Z,1010.19
2019-04-21T09:24:45.711Z,1010.17
2019-04-21T09:25:46.812Z,1010.13
2019-04-21T09:26:46.127Z,1010.09
2019-04-21T09:27:41.964Z,1010.09
2019-04-21T09:28:39.572Z,1010.13
2019-04-21T09:29:36.777Z,1010.07
2019-04-21T09:30:30.738Z,1010.12
2019-04-21T09:31:33.858Z,1010.13
2019-04-21T09:32:31.423Z,1010.09
2019-04-21T09:33:33.444Z,1010.03
2019-04-21T09:34:33.197Z,1010.09
2019-04-21T09:35:29.074Z,1010.04
2019-04-21T09:36:35.293Z,1010.02
2019-04-21T09:37:39.567Z,1010.07
2019-04-21T09:38:35.175Z,1010.02
2019-04-21T09:39:31.209Z,1009.99
2019-04-21T09:40:33.641Z,1010.07
2019-04-21T09:41:29.328Z,1009.96
2019-04-21T09:42:32.327Z,1010.02
2019-04-21T09:43:35.838Z,1009.95
2019-04-21T09:44:33.334Z,1009.94
2019-04-21T09:45:28.572Z,1010.03
2019-04-21T09:46:27.598Z,1009.96
2019-04-21T09:47:36.539Z,1009.92
2019-04-21T09:48:29.780Z,1009.96
2019-04-21T09:49:31.281Z,1009.96
2019-04-21T09:50:27.621Z,1009.91
2019-04-21T09:51:27.806Z,1009.93
2019-04-21T09:52:36.102Z,1009.84
2019-04-21T09:53:33.233Z,1009.81
2019-04-21T09:54:31.252Z,1009.78
2019-04-21T09:55:36.549Z,1009.74
2019-04-21T09:56:35.933Z,1009.76
2019-04-21T09:57:37.107Z,1009.72
2019-04-21T09:58:35.439Z,1009.80
2019-04-21T09:59:32.084Z,1009.76
2019-04-21T10:00:31.379Z,1009.73
2019-04-21T10:01:37.140Z,1009.73
2019-04-21T10:02:35.643Z,1009.73
2019-04-21T10:03:37.103Z,1009.70
2019-04-21T10:04:27.483Z,1009.72
2019-04-21T10:05:27.346Z,1009.72
2019-04-21T10:06:26.483Z,1009.65
2019-04-21T10:07:33.378Z,1009.62
2019-04-21T10:08:27.443Z,1009.62
2019-04-21T10:09:26.505Z,1009.62
2019-04-21T10:10:27.578Z,1009.59
2019-04-21T10:11:26.902Z,1009.51
2019-04-21T10:12:26.412Z,1009.53
2019-04-21T10:13:27.445Z,1009.56
2019-04-21T10:14:26.478Z,1009.52
2019-04-21T10:15:28.235Z,1009.46
2019-04-21T10:16:26.386Z,1009.52
2019-04-21T10:17:27.437Z,1009.46
2019-04-21T10:18:27.319Z,1009.48
2019-04-21T10:19:27.503Z,1009.41
2019-04-21T10:20:26.514Z,1009.41
2019-04-21T10:21:27.650Z,1009.32
2019-04-21T10:22:26.703Z,1009.29
2019-04-21T10:23:27.391Z,1009.23
2019-04-21T10:24:26.429Z,1009.27
2019-04-21T10:25:26.274Z,1009.28
2019-04-21T10:26:26.448Z,1009.22
2019-04-21T10:27:27.327Z,1009.21
2019-04-21T10:28:26.907Z,1009.23
2019-04-21T10:29:29.520Z,1009.21
2019-04-21T10:30:27.224Z,1009.18
2019-04-21T10:31:27.006Z,1009.20
2019-04-21T10:32:26.228Z,1009.16
2019-04-21T10:33:26.325Z,1009.19
2019-04-21T10:34:27.278Z,1009.16
2019-04-21T10:35:26.284Z,1009.17
2019-04-21T10:36:26.883Z,1009.19
2019-04-21T10:37:41.314Z,1009.13
2019-04-21T10:38:36.564Z,1009.15
2019-04-21T10:39:27.405Z,1009.17
2019-04-21T10:40:27.489Z,1009.12
2019-04-21T10:41:26.121Z,1009.08
2019-04-21T10:42:27.006Z,1009.07
2019-04-21T10:43:27.456Z,1009.03
2019-04-21T10:44:27.328Z,1009.07
2019-04-21T10:45:26.081Z,1009.00
2019-04-21T10:46:26.696Z,1008.98
2019-04-21T10:47:26.977Z,1008.95
2019-04-21T10:48:26.066Z,1008.88
2019-04-21T10:49:26.642Z,1008.89
2019-04-21T10:50:26.808Z,1008.92
2019-04-21T10:51:26.025Z,1008.89
2019-04-21T10:52:29.248Z,1008.86
2019-04-21T10:53:27.079Z,1008.87
2019-04-21T10:54:27.290Z,1008.81
2019-04-21T10:56:41.158Z,1008.76
2019-04-21T10:57:37.820Z,1008.77
2019-04-21T10:58:36.306Z,1008.74
2019-04-21T10:59:35.778Z,1008.75
2019-04-21T11:00:36.431Z,1008.69
2019-04-21T11:01:36.869Z,1008.66
2019-04-21T11:02:36.809Z,1008.62
2019-04-21T11:03:36.938Z,1008.70
2019-04-21T11:04:38.313Z,1008.72
2019-04-21T11:05:36.780Z,1008.64
2019-04-21T11:06:36.876Z,1008.63
2019-04-21T11:07:52.200Z,1008.64
2019-04-21T11:08:41.501Z,1008.64
2019-04-21T11:09:37.924Z,1008.62
2019-04-21T11:10:36.010Z,1008.52
2019-04-21T11:11:35.663Z,1008.65
2019-04-21T11:12:37.684Z,1008.60
2019-04-21T11:13:36.941Z,1008.52
2019-04-21T11:14:35.693Z,1008.54
2019-04-21T11:15:36.969Z,1008.49
2019-04-21T11:16:35.623Z,1008.52
2019-04-21T11:17:36.446Z,1008.53
2019-04-21T11:18:35.993Z,1008.43
2019-04-21T11:19:36.814Z,1008.43
2019-04-21T11:20:35.572Z,1008.33
2019-04-21T11:21:36.694Z,1008.40
2019-04-21T11:22:36.909Z,1008.35
2019-04-21T11:23:35.544Z,1008.39
2019-04-21T11:24:36.736Z,1008.37
2019-04-21T11:25:35.931Z,1008.31
2019-04-21T11:26:35.916Z,1008.35
2019-04-21T11:27:35.526Z,1008.26
2019-04-21T11:28:36.755Z,1008.35
2019-04-21T11:29:35.485Z,1008.32
2019-04-21T11:30:35.868Z,1008.29
2019-04-21T11:31:36.801Z,1008.25
2019-04-21T11:32:35.475Z,1008.22
2019-04-21T11:33:35.665Z,1008.26
2019-04-21T11:34:36.699Z,1008.26
2019-04-21T11:35:35.426Z,1008.21
2019-04-21T11:36:35.429Z,1008.29
2019-04-21T11:37:35.427Z,1008.23
2019-04-21T11:38:51.316Z,1008.26
2019-04-21T11:39:45.758Z,1008.21
2019-04-21T11:40:36.378Z,1008.24
2019-04-21T11:41:35.975Z,1008.18
2019-04-21T11:42:35.666Z,1008.22
2019-04-21T11:43:35.348Z,1008.21
2019-04-21T11:44:35.417Z,1008.20
2019-04-21T11:45:36.533Z,1008.19
2019-04-21T11:46:36.262Z,1008.13
2019-04-21T11:47:36.407Z,1008.07
2019-04-21T11:48:36.528Z,1008.11
2019-04-21T11:49:35.301Z,1008.08
2019-04-21T11:50:35.281Z,1008.05
2019-04-21T11:51:35.297Z,1008.12
2019-04-21T11:52:35.269Z,1008.06
2019-04-21T11:53:35.274Z,1008.11
2019-04-21T11:54:35.258Z,1008.05
2019-04-21T11:55:39.773Z,1008.03
2019-04-21T11:56:37.014Z,1007.95
2019-04-21T11:57:40.149Z,1007.95
2019-04-21T11:58:36.259Z,1007.89
2019-04-21T11:59:35.612Z,1007.88
2019-04-21T12:00:35.828Z,1007.81
2019-04-21T12:01:35.948Z,1007.91
2019-04-21T12:02:35.351Z,1007.84
2019-04-21T12:03:35.760Z,1007.71
2019-04-21T12:04:35.789Z,1007.76
2019-04-21T12:05:35.290Z,1007.85
2019-04-21T12:06:43.098Z,1007.82
2019-04-21T12:07:37.502Z,1007.79
2019-04-21T12:08:42.186Z,1007.75
2019-04-21T12:09:37.521Z,1007.68
2019-04-21T12:10:35.529Z,1007.75
2019-04-21T12:11:35.670Z,1007.70
2019-04-21T12:12:35.132Z,1007.65
2019-04-21T12:13:36.197Z,1007.63
2019-04-21T12:14:36.299Z,1007.64
2019-04-21T12:15:35.034Z,1007.64
2019-04-21T12:16:35.233Z,1007.56
2019-04-21T12:17:36.148Z,1007.58
2019-04-21T12:18:35.009Z,1007.60
2019-04-21T12:19:35.008Z,1007.60
2019-04-21T12:20:35.536Z,1007.59
2019-04-21T12:21:46.692Z,1007.55
2019-04-21T12:22:37.229Z,1007.51
2019-04-21T12:23:36.412Z,1007.47
2019-04-21T12:24:36.359Z,1007.42
2019-04-21T12:25:34.925Z,1007.53
2019-04-21T12:26:35.963Z,1007.51
2019-04-21T12:27:35.976Z,1007.47
2019-04-21T12:28:34.892Z,1007.42
2019-04-21T12:29:35.576Z,1007.41
2019-04-21T12:30:35.752Z,1007.42
2019-04-21T12:31:35.862Z,1007.40
2019-04-21T12:32:36.028Z,1007.41
2019-04-21T12:33:36.139Z,1007.37
2019-04-21T12:34:36.144Z,1007.38
2019-04-21T12:35:35.640Z,1007.32
2019-04-21T12:36:35.827Z,1007.27
2019-04-21T12:37:35.069Z,1007.29
2019-04-21T12:38:42.550Z,1007.24
2019-04-21T12:39:36.919Z,1007.21
2019-04-21T12:40:34.822Z,1007.22
2019-04-21T12:41:34.766Z,1007.27
2019-04-21T12:42:37.618Z,1007.21
2019-04-21T12:43:34.890Z,1007.07
2019-04-21T12:44:34.750Z,1007.12
2019-04-21T12:45:35.847Z,1007.04
2019-04-21T12:46:35.930Z,1007.07
2019-04-21T12:47:34.702Z,1007.12
2019-04-21T12:48:35.822Z,1007.10
2019-04-21T12:49:35.893Z,1007.08
2019-04-21T12:50:35.935Z,1007.17
2019-04-21T12:51:35.608Z,1007.10
2019-04-21T12:52:35.703Z,1007.03
2019-04-21T12:53:35.925Z,1007.03
2019-04-21T12:54:35.490Z,1007.01
2019-04-21T12:55:37.459Z,1006.99
2019-04-21T12:56:35.741Z,1007.03
2019-04-21T12:57:35.108Z,1006.97
2019-04-21T12:58:35.283Z,1006.93
2019-04-21T12:59:36.326Z,1006.96
2019-04-21T13:00:34.565Z,1006.90
2019-04-21T13:01:35.001Z,1006.93
2019-04-21T13:02:35.724Z,1006.84
2019-04-21T13:03:34.533Z,1006.82
2019-04-21T13:04:35.794Z,1006.88
2019-04-21T13:05:35.699Z,1006.88
2019-04-21T13:06:34.502Z,1006.83
2019-04-21T13:07:35.426Z,1006.84
2019-04-21T13:08:46.604Z,1006.85
2019-04-21T13:09:36.154Z,1006.80
2019-04-21T13:10:34.459Z,1006.74
2019-04-21T13:11:35.079Z,1006.65
2019-04-21T13:12:35.264Z,1006.77
2019-04-21T13:13:35.629Z,1006.72